Time,TemperatureF,DewpointF,PressureIn,WindDirection,WindDirectionDegrees,WindSpeedMPH,WindSpeedGustMPH,Humidity,HourlyPrecipIn,Conditions,Clouds,dailyrainin,SoftwareType,DateUTC
2013-02-28 00:04:00,33.7,33.0,29.61,NW,312,1.0,-999.0,95,-99.99,,,0.13,weatherlink.com 1.10,2013-02-28 05:04:00,
2013-02-28 00:19:00,33.6,32.0,29.61,WNW,293,1.0,-999.0,95,-99.99,,,0.13,weatherlink.com 1.10,2013-02-28 05:19:00,
2013-02-28 00:34:00,33.6,32.0,29.60,SW,224,4.0,-999.0,95,-99.99,,,0.13,weatherlink.com 1.10,2013-02-28 05:34:00,
2013-02-28 00:49:00,33.5,32.0,29.60,SW,220,3.0,-999.0,95,-99.99,,,0.13,weatherlink.com 1.10,2013-02-28 05:49:00,
2013-02-28 01:04:00,33.4,32.0,29.60,SSW,205,6.0,-999.0,95,-99.99,,,0.13,weatherlink.com 1.10,2013-02-28 06:04:00,
2013-02-28 01:19:00,33.4,32.0,29.60,WSW,253,2.0,-999.0,95,-99.99,,,0.13,weatherlink.com 1.10,2013-02-28 06:19:00,
2013-02-28 01:34:00,33.4,32.0,29.60,WNW,297,1.0,-999.0,95,-99.99,,,0.13,weatherlink.com 1.10,2013-02-28 06:34:00,
2013-02-28 01:49:00,33.3,32.0,29.60,WSW,242,4.0,-999.0,95,-99.99,,,0.13,weatherlink.com 1.10,2013-02-28 06:49:00,
2013-02-28 02:04:00,33.3,32.0,29.60,SW,231,3.0,-999.0,95,-99.99,,,0.13,weatherlink.com 1.10,2013-02-28 07:04:00,
2013-02-28 02:19:00,33.3,32.0,29.61,WNW,283,0.0,-999.0,95,-99.99,,,0.13,weatherlink.com 1.10,2013-02-28 07:19:00,
2013-02-28 02:34:00,33.3,32.0,29.60,WNW,298,0.0,-999.0,95,-99.99,,,0.14,weatherlink.com 1.10,2013-02-28 07:34:00,
2013-02-28 02:49:00,33.3,32.0,29.60,WSW,255,1.0,-999.0,95,-99.99,,,0.14,weatherlink.com 1.10,2013-02-28 07:49:00,
2013-02-28 03:04:00,33.3,32.0,29.60,WNW,288,1.0,-999.0,95,-99.99,,,0.14,weatherlink.com 1.10,2013-02-28 08:04:00,
2013-02-28 03:19:00,33.3,32.0,29.60,WSW,242,0.0,-999.0,95,-99.99,,,0.00,weatherlink.com 1.10,2013-02-28 08:19:00,
2013-02-28 03:34:00,33.3,32.0,29.59,SSW,212,0.0,-999.0,95,-99.99,,,0.00,weatherlink.com 1.10,2013-02-28 08:34:00,
2013-02-28 03:49:00,33.3,32.0,29.60,SSW,213,1.0,-999.0,95,-99.99,,,0.00,weatherlink.com 1.10,2013-02-28 08:49:00,
2013-02-28 04:04:00,32.9,32.0,29.60,South,191,0.0,-999.0,95,-99.99,,,0.00,weatherlink.com 1.10,2013-02-28 09:04:00,
2013-02-28 04:19:00,-999.0,-99.9,29.59,North,-999,-999.0,-999.0,-999,-99.99,,,0.00,weatherlink.com 1.10,2013-02-28 09:19:00,
2013-02-28 04:34:00,-999.0,-99.9,29.59,North,-999,-999.0,-999.0,-999,-99.99,,,0.00,weatherlink.com 1.10,2013-02-28 09:34:00,
2013-02-28 04:49:00,-999.0,-99.9,29.60,North,-999,-999.0,-999.0,-999,-99.99,,,0.00,weatherlink.com 1.10,2013-02-28 09:49:00,
2013-02-28 05:04:00,-999.0,-99.9,29.60,North,-999,-999.0,-999.0,-999,-99.99,,,0.00,weatherlink.com 1.10,2013-02-28 10:04:00,
2013-02-28 05:19:00,-999.0,-99.9,29.60,North,-999,-999.0,-999.0,-999,-99.99,,,0.00,weatherlink.com 1.10,2013-02-28 10:19:00,
2013-02-28 05:34:00,-999.0,-99.9,29.61,North,-999,-999.0,-999.0,-999,-99.99,,,0.00,weatherlink.com 1.10,2013-02-28 10:34:00,
2013-02-28 05:49:00,-999.0,-99.9,29.61,North,-999,-999.0,-999.0,-999,-99.99,,,0.00,weatherlink.com 1.10,2013-02-28 10:49:00,
2013-02-28 06:04:00,-999.0,-99.9,29.62,North,-999,-999.0,-999.0,-999,-99.99,,,0.00,weatherlink.com 1.10,2013-02-28 11:04:00,
2013-02-28 06:19:00,-999.0,-99.9,29.62,North,-999,-999.0,-999.0,-999,-99.99,,,0.00,weatherlink.com 1.10,2013-02-28 11:19:00,
2013-02-28 06:34:00,-999.0,-99.9,29.62,North,-999,-999.0,-999.0,-999,-99.99,,,0.00,weatherlink.com 1.10,2013-02-28 11:34:00,
2013-02-28 06:49:00,-999.0,-99.9,29.62,North,-999,-999.0,-999.0,-999,-99.99,,,0.00,weatherlink.com 1.10,2013-02-28 11:49:00,
2013-02-28 07:04:00,-999.0,-99.9,29.63,North,-999,-999.0,-999.0,-999,-99.99,,,0.00,weatherlink.com 1.10,2013-02-28 12:04:00,
2013-02-28 07:19:00,-999.0,-99.9,29.64,North,-999,-999.0,-999.0,-999,-99.99,,,0.00,weatherlink.com 1.10,2013-02-28 12:19:00,
2013-02-28 07:34:00,-999.0,-99.9,29.64,North,-999,-999.0,-999.0,-999,-99.99,,,0.00,weatherlink.com 1.10,2013-02-28 12:34:00,
2013-02-28 07:49:00,-999.0,-99.9,29.64,North,-999,-999.0,-999.0,-999,-99.99,,,0.00,weatherlink.com 1.10,2013-02-28 12:49:00,
2013-02-28 08:04:00,-999.0,-99.9,29.66,North,-999,-999.0,-999.0,-999,-99.99,,,0.00,weatherlink.com 1.10,2013-02-28 13:04:00,
2013-02-28 08:19:00,34.2,33.0,29.66,NNW,338,4.0,-999.0,96,-99.99,,,0.01,weatherlink.com 1.10,2013-02-28 13:19:00,
2013-02-28 08:34:00,34.3,33.0,29.67,NW,315,5.0,-999.0,96,-99.99,,,0.01,weatherlink.com 1.10,2013-02-28 13:34:00,
2013-02-28 08:49:00,34.4,33.0,29.68,NW,314,5.0,-999.0,96,-99.99,,,0.02,weatherlink.com 1.10,2013-02-28 13:49:00,
2013-02-28 09:04:00,34.5,33.0,29.68,WNW,294,6.0,-999.0,95,-99.99,,,0.03,weatherlink.com 1.10,2013-02-28 14:04:00,
2013-02-28 09:19:00,34.7,34.0,29.69,WNW,301,5.0,-999.0,95,-99.99,,,0.03,weatherlink.com 1.10,2013-02-28 14:19:00,
2013-02-28 09:34:00,34.9,34.0,29.69,NW,316,4.0,-999.0,95,-99.99,,,0.05,weatherlink.com 1.10,2013-02-28 14:34:00,
2013-02-28 09:49:00,35.9,34.0,29.70,NNW,332,4.0,-999.0,94,-99.99,,,0.07,weatherlink.com 1.10,2013-02-28 14:49:00,
2013-02-28 10:04:00,36.7,35.0,29.70,North,349,11.0,-999.0,92,-99.99,,,0.09,weatherlink.com 1.10,2013-02-28 15:04:00,
2013-02-28 10:19:00,36.7,34.0,29.71,NW,311,5.0,-999.0,91,-99.99,,,0.11,weatherlink.com 1.10,2013-02-28 15:19:00,
2013-02-28 10:34:00,36.8,35.0,29.71,NW,310,4.0,-999.0,91,-99.99,,,0.13,weatherlink.com 1.10,2013-02-28 15:34:00,
2013-02-28 10:49:00,37.2,34.0,29.72,NNW,334,6.0,-999.0,89,-99.99,,,0.15,weatherlink.com 1.10,2013-02-28 15:49:00,
2013-02-28 11:04:00,37.6,34.0,29.72,WNW,284,5.0,-999.0,88,-99.99,,,0.16,weatherlink.com 1.10,2013-02-28 16:04:00,
2013-02-28 11:19:00,37.6,34.0,29.73,NNW,344,7.0,-999.0,88,-99.99,,,0.17,weatherlink.com 1.10,2013-02-28 16:19:00,
2013-02-28 11:34:00,38.7,35.0,29.74,WNW,300,7.0,-999.0,85,-99.99,,,0.18,weatherlink.com 1.10,2013-02-28 16:34:00,
2013-02-28 11:49:00,38.5,33.0,29.74,NNE,17,12.0,-999.0,82,-99.99,,,0.19,weatherlink.com 1.10,2013-02-28 16:49:00,
2013-02-28 12:04:00,37.9,35.0,29.75,NNW,330,4.0,-999.0,88,-99.99,,,0.20,weatherlink.com 1.10,2013-02-28 17:04:00,
2013-02-28 12:19:00,37.2,35.0,29.75,NW,311,4.0,-999.0,91,-99.99,,,0.21,weatherlink.com 1.10,2013-02-28 17:19:00,
2013-02-28 12:34:00,38.1,34.0,29.75,NNW,346,14.0,-999.0,85,-99.99,,,0.21,weatherlink.com 1.10,2013-02-28 17:34:00,
2013-02-28 12:49:00,38.8,34.0,29.75,North,355,5.0,-999.0,83,-99.99,,,0.21,weatherlink.com 1.10,2013-02-28 17:49:00,
2013-02-28 13:04:00,38.7,34.0,29.76,NW,324,6.0,-999.0,82,-99.99,,,0.21,weatherlink.com 1.10,2013-02-28 18:04:00,
2013-02-28 13:19:00,38.3,34.0,29.76,NW,314,6.0,-999.0,83,-99.99,,,0.21,weatherlink.com 1.10,2013-02-28 18:19:00,
2013-02-28 13:34:00,38.6,34.0,29.77,North,6,8.0,-999.0,83,-99.99,,,0.21,weatherlink.com 1.10,2013-02-28 18:34:00,
2013-02-28 13:49:00,38.8,34.0,29.77,West,280,4.0,-999.0,82,-99.99,,,0.21,weatherlink.com 1.10,2013-02-28 18:49:00,
2013-02-28 14:04:00,37.4,33.0,29.78,NW,304,6.0,-999.0,84,-99.99,,,0.21,weatherlink.com 1.10,2013-02-28 19:04:00,
2013-02-28 14:19:00,37.6,33.0,29.78,NW,325,5.0,-999.0,82,-99.99,,,0.21,weatherlink.com 1.10,2013-02-28 19:19:00,
2013-02-28 14:34:00,37.9,33.0,29.79,NW,315,6.0,-999.0,81,-99.99,,,0.21,weatherlink.com 1.10,2013-02-28 19:34:00,
2013-02-28 14:49:00,37.9,32.0,29.79,NNW,341,8.0,-999.0,79,-99.99,,,0.21,weatherlink.com 1.10,2013-02-28 19:49:00,
2013-02-28 15:04:00,38.4,33.0,29.80,NNW,327,4.0,-999.0,80,-99.99,,,0.21,weatherlink.com 1.10,2013-02-28 20:04:00,
2013-02-28 15:19:00,38.5,33.0,29.80,NW,320,9.0,-999.0,79,-99.99,,,0.21,weatherlink.com 1.10,2013-02-28 20:19:00,
2013-02-28 15:34:00,38.6,33.0,29.81,North,354,6.0,-999.0,80,-99.99,,,0.21,weatherlink.com 1.10,2013-02-28 20:34:00,
2013-02-28 15:49:00,38.5,32.0,29.82,NW,314,9.0,-999.0,78,-99.99,,,0.21,weatherlink.com 1.10,2013-02-28 20:49:00,
2013-02-28 16:04:00,38.0,32.0,29.83,NNW,341,7.0,-999.0,78,-99.99,,,0.21,weatherlink.com 1.10,2013-02-28 21:04:00,
2013-02-28 16:19:00,37.5,32.0,29.84,NNW,329,7.0,-999.0,79,-99.99,,,0.21,weatherlink.com 1.10,2013-02-28 21:19:00,
2013-02-28 16:34:00,37.1,31.0,29.84,NNW,340,6.0,-999.0,80,-99.99,,,0.21,weatherlink.com 1.10,2013-02-28 21:34:00,
2013-02-28 16:49:00,36.6,31.0,29.85,NW,321,7.0,-999.0,81,-99.99,,,0.21,weatherlink.com 1.10,2013-02-28 21:49:00,
2013-02-28 17:04:00,36.2,31.0,29.86,NNW,341,5.0,-999.0,81,-99.99,,,0.21,weatherlink.com 1.10,2013-02-28 22:04:00,
2013-02-28 17:19:00,36.0,31.0,29.87,WNW,300,8.0,-999.0,82,-99.99,,,0.21,weatherlink.com 1.10,2013-02-28 22:19:00,
2013-02-28 17:34:00,35.7,31.0,29.87,NW,306,6.0,-999.0,82,-99.99,,,0.21,weatherlink.com 1.10,2013-02-28 22:34:00,
2013-02-28 17:49:00,35.5,30.0,29.88,NW,319,7.0,-999.0,81,-99.99,,,0.21,weatherlink.com 1.10,2013-02-28 22:49:00,
2013-02-28 18:04:00,35.4,30.0,29.89,North,349,6.0,-999.0,82,-99.99,,,0.21,weatherlink.com 1.10,2013-02-28 23:04:00,
2013-02-28 18:19:00,35.3,30.0,29.90,WNW,292,8.0,-999.0,82,-99.99,,,0.21,weatherlink.com 1.10,2013-02-28 23:19:00,
2013-02-28 18:34:00,35.3,30.0,29.91,NW,321,6.0,-999.0,81,-99.99,,,0.21,weatherlink.com 1.10,2013-02-28 23:34:00,
2013-02-28 18:49:00,35.1,30.0,29.92,NW,323,3.0,-999.0,81,-99.99,,,0.21,weatherlink.com 1.10,2013-02-28 23:49:00,
2013-02-28 19:04:00,35.0,30.0,29.92,NNW,328,3.0,-999.0,82,-99.99,,,0.21,weatherlink.com 1.10,2013-03-01 00:04:00,
2013-02-28 19:19:00,34.7,30.0,29.93,NNW,342,4.0,-999.0,83,-99.99,,,0.21,weatherlink.com 1.10,2013-03-01 00:19:00,
2013-02-28 19:34:00,34.3,30.0,29.94,NNW,333,4.0,-999.0,85,-99.99,,,0.21,weatherlink.com 1.10,2013-03-01 00:34:00,
2013-02-28 19:49:00,34.3,30.0,29.95,NW,320,5.0,-999.0,84,-99.99,,,0.21,weatherlink.com 1.10,2013-03-01 00:49:00,
2013-02-28 20:04:00,34.2,30.0,29.95,WNW,300,3.0,-999.0,85,-99.99,,,0.21,weatherlink.com 1.10,2013-03-01 01:04:00,
2013-02-28 20:19:00,33.7,30.0,29.95,NNW,330,2.0,-999.0,87,-99.99,,,0.21,weatherlink.com 1.10,2013-03-01 01:19:00,
2013-02-28 20:34:00,33.4,30.0,29.96,NNW,330,4.0,-999.0,88,-99.99,,,0.21,weatherlink.com 1.10,2013-03-01 01:34:00,
2013-02-28 20:49:00,33.3,30.0,29.97,NNW,339,2.0,-999.0,88,-99.99,,,0.21,weatherlink.com 1.10,2013-03-01 01:49:00,
2013-02-28 21:04:00,32.8,30.0,29.97,NW,325,2.0,-999.0,89,-99.99,,,0.21,weatherlink.com 1.10,2013-03-01 02:04:00,
2013-02-28 21:19:00,32.4,30.0,29.97,North,355,4.0,-999.0,90,-99.99,,,0.21,weatherlink.com 1.10,2013-03-01 02:19:00,
2013-02-28 21:34:00,32.4,30.0,29.98,NNW,327,5.0,-999.0,89,-99.99,,,0.21,weatherlink.com 1.10,2013-03-01 02:34:00,
2013-02-28 21:49:00,32.4,30.0,29.98,NW,325,3.0,-999.0,89,-99.99,,,0.21,weatherlink.com 1.10,2013-03-01 02:49:00,
2013-02-28 22:04:00,32.4,30.0,29.98,NNW,334,1.0,-999.0,89,-99.99,,,0.21,weatherlink.com 1.10,2013-03-01 03:04:00,
2013-02-28 22:19:00,32.4,30.0,29.98,NW,325,3.0,-999.0,90,-99.99,,,0.21,weatherlink.com 1.10,2013-03-01 03:19:00,
2013-02-28 22:34:00,32.3,30.0,29.98,NW,316,3.0,-999.0,92,-99.99,,,0.21,weatherlink.com 1.10,2013-03-01 03:34:00,
2013-02-28 22:49:00,32.4,30.0,29.98,NW,314,2.0,-999.0,91,-99.99,,,0.21,weatherlink.com 1.10,2013-03-01 03:49:00,
2013-02-28 23:04:00,32.4,30.0,29.98,North,358,3.0,-999.0,90,-99.99,,,0.21,weatherlink.com 1.10,2013-03-01 04:04:00,
2013-02-28 23:19:00,32.5,29.0,29.98,NNW,340,4.0,-999.0,87,-99.99,,,0.21,weatherlink.com 1.10,2013-03-01 04:19:00,
2013-02-28 23:34:00,32.5,29.0,29.98,NNW,345,4.0,-999.0,86,-99.99,,,0.21,weatherlink.com 1.10,2013-03-01 04:34:00,
2013-02-28 23:49:00,32.3,28.0,29.99,NNE,18,5.0,-999.0,85,-99.99,,,0.21,weatherlink.com 1.10,2013-03-01 04:49:00,